sensor_id;sensor_type;location;lat;lon;timestamp;pressure;altitude;pressure_sealevel;temperature;humidity
77086;BME280;66014;53.134;18.006;2023-07-24T00:02:18;100137.27;;;19.57;48.87
77086;BME280;66014;53.134;18.006;2023-07-24T00:04:43;100137.45;;;19.55;48.75
77086;BME280;66014;53.134;18.006;2023-07-24T00:07:09;100140.39;;;19.52;48.78
77086;BME280;66014;53.134;18.006;2023-07-24T00:09:35;100134.95;;;19.50;48.85
77086;BME280;66014;53.134;18.006;2023-07-24T00:12:01;100141.39;;;19.49;49.10
77086;BME280;66014;53.134;18.006;2023-07-24T00:14:26;100141.73;;;19.45;49.21
77086;BME280;66014;53.134;18.006;2023-07-24T00:16:52;100144.13;;;19.43;49.19
77086;BME280;66014;53.134;18.006;2023-07-24T00:19:18;100149.21;;;19.40;49.22
77086;BME280;66014;53.134;18.006;2023-07-24T00:21:47;100145.59;;;19.37;49.37
77086;BME280;66014;53.134;18.006;2023-07-24T00:24:13;100140.58;;;19.34;49.53
77086;BME280;66014;53.134;18.006;2023-07-24T00:26:39;100138.52;;;19.31;49.52
77086;BME280;66014;53.134;18.006;2023-07-24T00:29:04;100135.85;;;19.28;49.61
77086;BME280;66014;53.134;18.006;2023-07-24T00:31:30;100140.13;;;19.26;49.45
77086;BME280;66014;53.134;18.006;2023-07-24T00:33:56;100138.82;;;19.23;49.55
77086;BME280;66014;53.134;18.006;2023-07-24T00:36:22;100146.95;;;19.20;49.62
77086;BME280;66014;53.134;18.006;2023-07-24T00:38:48;100146.55;;;19.18;49.75
77086;BME280;66014;53.134;18.006;2023-07-24T00:41:13;100147.69;;;19.15;49.85
77086;BME280;66014;53.134;18.006;2023-07-24T00:43:40;100147.16;;;19.13;49.68
77086;BME280;66014;53.134;18.006;2023-07-24T00:46:06;100152.36;;;19.11;49.89
77086;BME280;66014;53.134;18.006;2023-07-24T00:48:32;100146.70;;;19.08;49.85
77086;BME280;66014;53.134;18.006;2023-07-24T00:50:59;100146.74;;;19.04;49.93
77086;BME280;66014;53.134;18.006;2023-07-24T00:53:25;100146.65;;;19.02;49.96
77086;BME280;66014;53.134;18.006;2023-07-24T00:55:51;100143.08;;;18.98;49.85
77086;BME280;66014;53.134;18.006;2023-07-24T00:58:19;100145.47;;;18.96;49.94
77086;BME280;66014;53.134;18.006;2023-07-24T01:00:45;100145.40;;;18.93;50.13
77086;BME280;66014;53.134;18.006;2023-07-24T01:03:11;100144.88;;;18.91;50.01
77086;BME280;66014;53.134;18.006;2023-07-24T01:05:38;100148.67;;;18.88;50.03
77086;BME280;66014;53.134;18.006;2023-07-24T01:08:04;100150.27;;;18.87;50.20
77086;BME280;66014;53.134;18.006;2023-07-24T01:10:30;100152.95;;;18.86;50.21
77086;BME280;66014;53.134;18.006;2023-07-24T01:15:42;100151.40;;;18.84;50.40
77086;BME280;66014;53.134;18.006;2023-07-24T01:18:12;100144.60;;;18.80;50.43
77086;BME280;66014;53.134;18.006;2023-07-24T01:20:51;100144.09;;;18.79;50.55
77086;BME280;66014;53.134;18.006;2023-07-24T01:25:57;100143.11;;;18.74;50.61
77086;BME280;66014;53.134;18.006;2023-07-24T01:28:25;100141.36;;;18.71;50.65
77086;BME280;66014;53.134;18.006;2023-07-24T01:30:51;100134.48;;;18.68;50.69
77086;BME280;66014;53.134;18.006;2023-07-24T01:33:17;100134.52;;;18.66;50.72
77086;BME280;66014;53.134;18.006;2023-07-24T01:35:53;100134.59;;;18.64;50.89
77086;BME280;66014;53.134;18.006;2023-07-24T01:38:23;100135.31;;;18.62;50.93
77086;BME280;66014;53.134;18.006;2023-07-24T01:40:51;100134.87;;;18.59;51.00
77086;BME280;66014;53.134;18.006;2023-07-24T01:43:17;100126.14;;;18.56;51.03
77086;BME280;66014;53.134;18.006;2023-07-24T01:45:43;100123.34;;;18.54;50.93
77086;BME280;66014;53.134;18.006;2023-07-24T01:48:09;100123.39;;;18.51;51.11
77086;BME280;66014;53.134;18.006;2023-07-24T01:50:35;100123.11;;;18.48;51.02
77086;BME280;66014;53.134;18.006;2023-07-24T01:53:00;100121.91;;;18.45;51.18
77086;BME280;66014;53.134;18.006;2023-07-24T01:55:26;100119.86;;;18.42;51.22
77086;BME280;66014;53.134;18.006;2023-07-24T01:57:52;100121.64;;;18.38;51.33
77086;BME280;66014;53.134;18.006;2023-07-24T02:00:18;100126.16;;;18.36;51.60
77086;BME280;66014;53.134;18.006;2023-07-24T02:02:43;100131.46;;;18.33;51.68
77086;BME280;66014;53.134;18.006;2023-07-24T02:05:09;100127.81;;;18.29;51.89
77086;BME280;66014;53.134;18.006;2023-07-24T02:07:35;100131.61;;;18.24;52.10
77086;BME280;66014;53.134;18.006;2023-07-24T02:10:01;100131.20;;;18.20;52.08
77086;BME280;66014;53.134;18.006;2023-07-24T02:12:27;100128.08;;;18.15;52.29
77086;BME280;66014;53.134;18.006;2023-07-24T02:14:52;100128.43;;;18.08;52.33
77086;BME280;66014;53.134;18.006;2023-07-24T02:17:19;100128.30;;;18.02;52.78
77086;BME280;66014;53.134;18.006;2023-07-24T02:19:45;100123.54;;;17.96;52.78
77086;BME280;66014;53.134;18.006;2023-07-24T02:22:10;100129.98;;;17.90;52.94
77086;BME280;66014;53.134;18.006;2023-07-24T02:24:36;100129.23;;;17.85;52.93
77086;BME280;66014;53.134;18.006;2023-07-24T02:27:02;100130.21;;;17.81;53.07
77086;BME280;66014;53.134;18.006;2023-07-24T02:29:28;100127.21;;;17.77;53.38
77086;BME280;66014;53.134;18.006;2023-07-24T02:31:54;100125.40;;;17.73;53.40
77086;BME280;66014;53.134;18.006;2023-07-24T02:34:20;100123.29;;;17.69;53.42
77086;BME280;66014;53.134;18.006;2023-07-24T02:36:52;100123.32;;;17.66;53.72
77086;BME280;66014;53.134;18.006;2023-07-24T02:39:19;100122.45;;;17.64;53.67
77086;BME280;66014;53.134;18.006;2023-07-24T02:41:49;100120.70;;;17.63;53.82
77086;BME280;66014;53.134;18.006;2023-07-24T02:44:15;100122.02;;;17.61;54.01
77086;BME280;66014;53.134;18.006;2023-07-24T02:46:40;100117.56;;;17.60;54.03
77086;BME280;66014;53.134;18.006;2023-07-24T02:49:07;100117.12;;;17.57;54.39
77086;BME280;66014;53.134;18.006;2023-07-24T02:51:33;100118.70;;;17.55;54.29
77086;BME280;66014;53.134;18.006;2023-07-24T02:53:58;100113.91;;;17.53;54.23
77086;BME280;66014;53.134;18.006;2023-07-24T02:56:24;100115.09;;;17.53;54.45
77086;BME280;66014;53.134;18.006;2023-07-24T02:58:50;100109.17;;;17.53;54.49
77086;BME280;66014;53.134;18.006;2023-07-24T03:01:16;100106.33;;;17.53;54.54
77086;BME280;66014;53.134;18.006;2023-07-24T03:03:42;100105.63;;;17.52;54.70
77086;BME280;66014;53.134;18.006;2023-07-24T03:06:08;100101.53;;;17.53;54.56
77086;BME280;66014;53.134;18.006;2023-07-24T03:08:34;100098.48;;;17.56;54.59
77086;BME280;66014;53.134;18.006;2023-07-24T03:11:00;100103.37;;;17.58;54.62
77086;BME280;66014;53.134;18.006;2023-07-24T03:13:27;100101.89;;;17.59;54.80
77086;BME280;66014;53.134;18.006;2023-07-24T03:15:55;100102.60;;;17.59;54.63
77086;BME280;66014;53.134;18.006;2023-07-24T03:18:22;100110.69;;;17.60;54.94
77086;BME280;66014;53.134;18.006;2023-07-24T03:20:48;100116.06;;;17.60;54.86
77086;BME280;66014;53.134;18.006;2023-07-24T03:23:14;100117.26;;;17.61;54.83
77086;BME280;66014;53.134;18.006;2023-07-24T03:25:40;100121.15;;;17.61;55.05
77086;BME280;66014;53.134;18.006;2023-07-24T03:28:06;100123.89;;;17.61;55.05
77086;BME280;66014;53.134;18.006;2023-07-24T03:30:32;100119.34;;;17.60;55.16
77086;BME280;66014;53.134;18.006;2023-07-24T03:32:58;100123.19;;;17.61;55.17
77086;BME280;66014;53.134;18.006;2023-07-24T03:35:24;100123.23;;;17.61;55.35
77086;BME280;66014;53.134;18.006;2023-07-24T03:37:49;100117.94;;;17.62;55.81
77086;BME280;66014;53.134;18.006;2023-07-24T03:40:15;100125.17;;;17.60;55.83
77086;BME280;66014;53.134;18.006;2023-07-24T03:42:41;100121.99;;;17.60;56.20
77086;BME280;66014;53.134;18.006;2023-07-24T03:45:07;100119.50;;;17.60;56.34
77086;BME280;66014;53.134;18.006;2023-07-24T03:47:34;100117.14;;;17.60;56.47
77086;BME280;66014;53.134;18.006;2023-07-24T03:50:00;100118.98;;;17.62;56.56
77086;BME280;66014;53.134;18.006;2023-07-24T03:52:26;100120.15;;;17.62;56.66
77086;BME280;66014;53.134;18.006;2023-07-24T03:54:52;100119.71;;;17.62;56.83
77086;BME280;66014;53.134;18.006;2023-07-24T03:57:18;100118.80;;;17.62;56.76
77086;BME280;66014;53.134;18.006;2023-07-24T03:59:44;100117.61;;;17.64;56.64
77086;BME280;66014;53.134;18.006;2023-07-24T04:02:10;100118.15;;;17.66;56.78
77086;BME280;66014;53.134;18.006;2023-07-24T04:04:36;100116.86;;;17.69;56.65
77086;BME280;66014;53.134;18.006;2023-07-24T04:07:02;100110.66;;;17.73;56.65
77086;BME280;66014;53.134;18.006;2023-07-24T04:09:28;100119.13;;;17.76;56.69
77086;BME280;66014;53.134;18.006;2023-07-24T04:11:55;100124.09;;;17.80;56.95
77086;BME280;66014;53.134;18.006;2023-07-24T04:14:20;100118.48;;;17.81;56.65
77086;BME280;66014;53.134;18.006;2023-07-24T04:16:46;100119.36;;;17.82;56.91
77086;BME280;66014;53.134;18.006;2023-07-24T04:19:12;100119.77;;;17.83;57.18
77086;BME280;66014;53.134;18.006;2023-07-24T04:21:38;100120.31;;;17.83;56.92
77086;BME280;66014;53.134;18.006;2023-07-24T04:24:04;100120.25;;;17.86;56.85
77086;BME280;66014;53.134;18.006;2023-07-24T04:26:30;100113.41;;;17.91;56.98
77086;BME280;66014;53.134;18.006;2023-07-24T04:28:56;100112.83;;;17.96;56.79
77086;BME280;66014;53.134;18.006;2023-07-24T04:31:25;100118.20;;;18.04;57.00
77086;BME280;66014;53.134;18.006;2023-07-24T04:33:50;100122.44;;;18.07;57.21
77086;BME280;66014;53.134;18.006;2023-07-24T04:36:16;100124.39;;;18.11;57.07
77086;BME280;66014;53.134;18.006;2023-07-24T04:38:42;100121.90;;;18.13;57.44
77086;BME280;66014;53.134;18.006;2023-07-24T04:41:08;100121.16;;;18.13;57.61
77086;BME280;66014;53.134;18.006;2023-07-24T04:43:33;100119.91;;;18.13;57.45
77086;BME280;66014;53.134;18.006;2023-07-24T04:46:00;100119.67;;;18.15;57.50
77086;BME280;66014;53.134;18.006;2023-07-24T04:48:25;100121.58;;;18.18;58.05
77086;BME280;66014;53.134;18.006;2023-07-24T04:50:55;100122.45;;;18.21;57.66
77086;BME280;66014;53.134;18.006;2023-07-24T04:53:21;100122.93;;;18.24;58.18
77086;BME280;66014;53.134;18.006;2023-07-24T04:55:47;100121.61;;;18.25;57.95
77086;BME280;66014;53.134;18.006;2023-07-24T04:58:13;100119.23;;;18.27;57.94
77086;BME280;66014;53.134;18.006;2023-07-24T05:00:39;100125.77;;;18.30;57.97
77086;BME280;66014;53.134;18.006;2023-07-24T05:03:05;100127.75;;;18.37;57.85
77086;BME280;66014;53.134;18.006;2023-07-24T05:05:32;100131.16;;;18.44;57.95
77086;BME280;66014;53.134;18.006;2023-07-24T05:08:01;100129.40;;;18.47;57.96
77086;BME280;66014;53.134;18.006;2023-07-24T05:10:27;100127.60;;;18.48;57.97
77086;BME280;66014;53.134;18.006;2023-07-24T05:12:53;100120.41;;;18.53;57.92
77086;BME280;66014;53.134;18.006;2023-07-24T05:15:22;100123.48;;;18.58;58.16
77086;BME280;66014;53.134;18.006;2023-07-24T05:17:48;100122.73;;;18.64;57.89
77086;BME280;66014;53.134;18.006;2023-07-24T05:20:14;100129.86;;;18.69;58.00
77086;BME280;66014;53.134;18.006;2023-07-24T05:22:40;100130.46;;;18.71;58.06
77086;BME280;66014;53.134;18.006;2023-07-24T05:25:06;100127.77;;;18.73;57.96
77086;BME280;66014;53.134;18.006;2023-07-24T05:27:32;100132.56;;;18.74;58.05
77086;BME280;66014;53.134;18.006;2023-07-24T05:29:57;100131.27;;;18.77;58.00
77086;BME280;66014;53.134;18.006;2023-07-24T05:32:23;100129.05;;;18.86;57.93
77086;BME280;66014;53.134;18.006;2023-07-24T05:34:49;100126.56;;;18.98;57.74
77086;BME280;66014;53.134;18.006;2023-07-24T05:37:15;100129.59;;;19.07;57.79
77086;BME280;66014;53.134;18.006;2023-07-24T05:39:42;100133.44;;;19.12;58.16
77086;BME280;66014;53.134;18.006;2023-07-24T05:42:12;100138.21;;;19.11;58.77
77086;BME280;66014;53.134;18.006;2023-07-24T05:44:39;100130.46;;;19.05;59.27
77086;BME280;66014;53.134;18.006;2023-07-24T05:47:08;100135.23;;;19.00;59.91
77086;BME280;66014;53.134;18.006;2023-07-24T05:49:35;100133.14;;;18.95;60.50
77086;BME280;66014;53.134;18.006;2023-07-24T05:52:09;100140.27;;;18.92;60.70
77086;BME280;66014;53.134;18.006;2023-07-24T05:54:40;100140.10;;;18.89;61.54
77086;BME280;66014;53.134;18.006;2023-07-24T05:57:08;100147.71;;;18.83;62.44
77086;BME280;66014;53.134;18.006;2023-07-24T05:59:35;100156.66;;;18.74;63.14
77086;BME280;66014;53.134;18.006;2023-07-24T06:02:02;100161.41;;;18.68;63.85
77086;BME280;66014;53.134;18.006;2023-07-24T06:04:27;100158.63;;;18.64;64.41
77086;BME280;66014;53.134;18.006;2023-07-24T06:06:53;100161.98;;;18.59;64.64
77086;BME280;66014;53.134;18.006;2023-07-24T06:09:19;100164.83;;;18.55;65.02
77086;BME280;66014;53.134;18.006;2023-07-24T06:11:45;100159.24;;;18.48;66.04
77086;BME280;66014;53.134;18.006;2023-07-24T06:14:11;100154.08;;;18.43;66.11
77086;BME280;66014;53.134;18.006;2023-07-24T06:16:37;100147.42;;;18.40;66.16
77086;BME280;66014;53.134;18.006;2023-07-24T06:19:03;100146.40;;;18.40;66.65
77086;BME280;66014;53.134;18.006;2023-07-24T06:21:29;100145.70;;;18.42;66.41
77086;BME280;66014;53.134;18.006;2023-07-24T06:23:55;100148.52;;;18.43;66.75
77086;BME280;66014;53.134;18.006;2023-07-24T06:26:23;100141.04;;;18.44;66.90
77086;BME280;66014;53.134;18.006;2023-07-24T06:28:49;100141.54;;;18.50;66.68
77086;BME280;66014;53.134;18.006;2023-07-24T06:31:15;100137.42;;;18.58;67.09
77086;BME280;66014;53.134;18.006;2023-07-24T06:33:40;100140.33;;;18.69;66.84
77086;BME280;66014;53.134;18.006;2023-07-24T06:36:09;100138.70;;;18.80;66.78
77086;BME280;66014;53.134;18.006;2023-07-24T06:38:36;100137.15;;;18.89;67.37
77086;BME280;66014;53.134;18.006;2023-07-24T06:41:02;100126.21;;;18.87;67.91
77086;BME280;66014;53.134;18.006;2023-07-24T06:43:33;100110.02;;;18.81;68.64
77086;BME280;66014;53.134;18.006;2023-07-24T06:46:00;100105.65;;;18.77;68.47
77086;BME280;66014;53.134;18.006;2023-07-24T06:48:25;100101.27;;;18.75;68.74
77086;BME280;66014;53.134;18.006;2023-07-24T06:50:51;100098.60;;;18.78;68.80
77086;BME280;66014;53.134;18.006;2023-07-24T06:53:17;100099.84;;;18.78;69.20
77086;BME280;66014;53.134;18.006;2023-07-24T06:55:43;100090.48;;;18.76;68.83
77086;BME280;66014;53.134;18.006;2023-07-24T06:58:09;100091.71;;;18.76;69.48
77086;BME280;66014;53.134;18.006;2023-07-24T07:00:34;100088.94;;;18.77;69.70
77086;BME280;66014;53.134;18.006;2023-07-24T07:03:01;100084.07;;;18.82;69.51
77086;BME280;66014;53.134;18.006;2023-07-24T07:05:27;100081.79;;;18.91;69.42
77086;BME280;66014;53.134;18.006;2023-07-24T07:07:52;100081.45;;;19.04;69.40
77086;BME280;66014;53.134;18.006;2023-07-24T07:10:18;100081.10;;;19.28;69.28
77086;BME280;66014;53.134;18.006;2023-07-24T07:12:44;100082.27;;;19.51;68.78
77086;BME280;66014;53.134;18.006;2023-07-24T07:15:16;100078.79;;;19.61;68.55
77086;BME280;66014;53.134;18.006;2023-07-24T07:17:49;100081.95;;;19.71;68.36
77086;BME280;66014;53.134;18.006;2023-07-24T07:20:15;100080.48;;;19.83;68.35
77086;BME280;66014;53.134;18.006;2023-07-24T07:22:43;100074.52;;;19.89;68.04
77086;BME280;66014;53.134;18.006;2023-07-24T07:25:11;100069.58;;;19.83;68.46
77086;BME280;66014;53.134;18.006;2023-07-24T07:27:37;100062.05;;;19.77;68.68
77086;BME280;66014;53.134;18.006;2023-07-24T07:30:03;100061.61;;;19.77;68.43
77086;BME280;66014;53.134;18.006;2023-07-24T07:32:29;100064.19;;;19.76;68.78
77086;BME280;66014;53.134;18.006;2023-07-24T07:34:55;100069.45;;;19.73;68.94
77086;BME280;66014;53.134;18.006;2023-07-24T07:37:21;100067.00;;;19.73;69.11
77086;BME280;66014;53.134;18.006;2023-07-24T07:39:48;100063.26;;;19.75;68.85
77086;BME280;66014;53.134;18.006;2023-07-24T07:42:14;100056.23;;;19.88;68.77
77086;BME280;66014;53.134;18.006;2023-07-24T07:44:40;100055.66;;;20.15;68.46
77086;BME280;66014;53.134;18.006;2023-07-24T07:47:06;100053.29;;;20.51;67.84
77086;BME280;66014;53.134;18.006;2023-07-24T07:49:32;100051.48;;;20.60;66.58
77086;BME280;66014;53.134;18.006;2023-07-24T07:51:58;100048.99;;;20.72;66.47
77086;BME280;66014;53.134;18.006;2023-07-24T07:54:23;100043.09;;;21.08;65.84
77086;BME280;66014;53.134;18.006;2023-07-24T07:56:49;100040.60;;;21.21;65.73
77086;BME280;66014;53.134;18.006;2023-07-24T07:59:15;100042.48;;;21.29;65.55
77086;BME280;66014;53.134;18.006;2023-07-24T08:01:41;100038.09;;;21.82;64.55
77086;BME280;66014;53.134;18.006;2023-07-24T08:04:07;100027.88;;;23.60;61.95
77086;BME280;66014;53.134;18.006;2023-07-24T08:06:33;100033.77;;;25.19;59.02
77086;BME280;66014;53.134;18.006;2023-07-24T08:08:59;100026.81;;;26.28;55.49
77086;BME280;66014;53.134;18.006;2023-07-24T08:11:25;100026.92;;;26.77;54.49
77086;BME280;66014;53.134;18.006;2023-07-24T08:13:51;100028.52;;;26.81;52.60
77086;BME280;66014;53.134;18.006;2023-07-24T08:16:16;100017.64;;;27.61;50.29
77086;BME280;66014;53.134;18.006;2023-07-24T08:18:48;100014.07;;;28.78;48.70
77086;BME280;66014;53.134;18.006;2023-07-24T08:21:14;100007.67;;;29.43;46.62
77086;BME280;66014;53.134;18.006;2023-07-24T08:23:41;100006.92;;;29.23;45.31
77086;BME280;66014;53.134;18.006;2023-07-24T08:26:09;100007.20;;;28.84;45.55
77086;BME280;66014;53.134;18.006;2023-07-24T08:28:35;99999.73;;;28.69;45.04
77086;BME280;66014;53.134;18.006;2023-07-24T08:31:02;99998.77;;;28.86;44.76
77086;BME280;66014;53.134;18.006;2023-07-24T08:33:29;99996.14;;;28.93;43.69
77086;BME280;66014;53.134;18.006;2023-07-24T08:36:01;99990.56;;;28.33;42.93
77086;BME280;66014;53.134;18.006;2023-07-24T08:38:28;99986.92;;;27.69;43.43
77086;BME280;66014;53.134;18.006;2023-07-24T08:43:29;99976.30;;;27.73;42.54
77086;BME280;66014;53.134;18.006;2023-07-24T08:45:58;99980.47;;;27.94;40.75
77086;BME280;66014;53.134;18.006;2023-07-24T08:48:31;99975.52;;;27.65;41.06
77086;BME280;66014;53.134;18.006;2023-07-24T08:51:00;99972.48;;;27.64;42.24
77086;BME280;66014;53.134;18.006;2023-07-24T08:53:29;99979.20;;;27.96;41.30
77086;BME280;66014;53.134;18.006;2023-07-24T08:55:59;99977.11;;;28.43;39.70
77086;BME280;66014;53.134;18.006;2023-07-24T08:58:25;99974.70;;;28.52;40.00
77086;BME280;66014;53.134;18.006;2023-07-24T09:00:51;99976.83;;;29.10;38.45
77086;BME280;66014;53.134;18.006;2023-07-24T09:03:18;99970.20;;;28.88;38.44
77086;BME280;66014;53.134;18.006;2023-07-24T09:05:44;99973.22;;;29.32;38.25
77086;BME280;66014;53.134;18.006;2023-07-24T09:08:14;99971.34;;;30.52;36.03
77086;BME280;66014;53.134;18.006;2023-07-24T09:10:40;99967.95;;;32.12;34.78
77086;BME280;66014;53.134;18.006;2023-07-24T09:13:07;99961.79;;;33.30;33.52
77086;BME280;66014;53.134;18.006;2023-07-24T09:15:42;99961.35;;;33.36;32.18
77086;BME280;66014;53.134;18.006;2023-07-24T09:18:09;99963.43;;;33.72;31.62
77086;BME280;66014;53.134;18.006;2023-07-24T09:20:40;99960.61;;;32.86;32.13
77086;BME280;66014;53.134;18.006;2023-07-24T09:23:07;99953.20;;;31.69;33.05
77086;BME280;66014;53.134;18.006;2023-07-24T09:25:35;99949.15;;;31.60;33.51
77086;BME280;66014;53.134;18.006;2023-07-24T09:28:09;99949.36;;;31.95;33.30
77086;BME280;66014;53.134;18.006;2023-07-24T09:30:35;99950.23;;;31.19;33.58
77086;BME280;66014;53.134;18.006;2023-07-24T09:33:02;99951.73;;;30.38;34.95
77086;BME280;66014;53.134;18.006;2023-07-24T09:35:28;99950.25;;;30.54;34.99
77086;BME280;66014;53.134;18.006;2023-07-24T09:38:07;99943.95;;;32.12;32.41
77086;BME280;66014;53.134;18.006;2023-07-24T09:40:53;99938.55;;;33.35;30.72
77086;BME280;66014;53.134;18.006;2023-07-24T09:43:23;99929.10;;;32.19;31.97
77086;BME280;66014;53.134;18.006;2023-07-24T09:45:51;99924.66;;;31.87;32.30
77086;BME280;66014;53.134;18.006;2023-07-24T09:48:18;99927.54;;;33.02;30.99
77086;BME280;66014;53.134;18.006;2023-07-24T09:50:47;99933.98;;;34.20;29.37
77086;BME280;66014;53.134;18.006;2023-07-24T09:53:24;99937.82;;;35.22;28.47
77086;BME280;66014;53.134;18.006;2023-07-24T09:55:58;99944.98;;;35.09;27.07
77086;BME280;66014;53.134;18.006;2023-07-24T09:58:25;99932.90;;;34.55;27.71
77086;BME280;66014;53.134;18.006;2023-07-24T10:00:53;99930.33;;;33.33;29.20
77086;BME280;66014;53.134;18.006;2023-07-24T10:03:20;99922.11;;;32.16;30.52
77086;BME280;66014;53.134;18.006;2023-07-24T10:05:48;99912.68;;;31.06;32.31
77086;BME280;66014;53.134;18.006;2023-07-24T10:08:16;99915.77;;;30.15;33.85
77086;BME280;66014;53.134;18.006;2023-07-24T10:10:43;99901.89;;;30.62;33.52
77086;BME280;66014;53.134;18.006;2023-07-24T10:13:09;99903.77;;;31.82;32.00
77086;BME280;66014;53.134;18.006;2023-07-24T10:15:39;99903.23;;;33.03;30.62
77086;BME280;66014;53.134;18.006;2023-07-24T10:18:10;99898.08;;;34.15;29.64
77086;BME280;66014;53.134;18.006;2023-07-24T10:20:38;99887.57;;;35.17;28.08
77086;BME280;66014;53.134;18.006;2023-07-24T10:23:10;99884.27;;;35.87;27.14
77086;BME280;66014;53.134;18.006;2023-07-24T10:25:38;99873.36;;;36.51;25.89
77086;BME280;66014;53.134;18.006;2023-07-24T10:28:10;99872.11;;;36.25;25.43
77086;BME280;66014;53.134;18.006;2023-07-24T10:30:38;99865.45;;;35.21;26.31
77086;BME280;66014;53.134;18.006;2023-07-24T10:36:16;99860.66;;;35.10;26.81
77086;BME280;66014;53.134;18.006;2023-07-24T10:38:34;99857.97;;;33.50;28.28
77086;BME280;66014;53.134;18.006;2023-07-24T10:41:04;99861.60;;;32.17;30.15
77086;BME280;66014;53.134;18.006;2023-07-24T10:43:48;99860.02;;;31.74;30.86
77086;BME280;66014;53.134;18.006;2023-07-24T10:46:18;99858.23;;;32.47;29.92
77086;BME280;66014;53.134;18.006;2023-07-24T10:48:46;99863.80;;;31.79;31.08
77086;BME280;66014;53.134;18.006;2023-07-24T10:51:13;99856.30;;;31.73;31.21
77086;BME280;66014;53.134;18.006;2023-07-24T10:53:48;99856.35;;;32.98;29.60
77086;BME280;66014;53.134;18.006;2023-07-24T10:56:15;99856.66;;;33.71;29.16
77086;BME280;66014;53.134;18.006;2023-07-24T10:58:41;99855.88;;;33.81;29.01
77086;BME280;66014;53.134;18.006;2023-07-24T11:01:08;99855.99;;;35.00;27.29
77086;BME280;66014;53.134;18.006;2023-07-24T11:03:37;99853.23;;;34.89;26.28
77086;BME280;66014;53.134;18.006;2023-07-24T11:06:03;99850.95;;;33.67;27.95
77086;BME280;66014;53.134;18.006;2023-07-24T11:08:29;99850.19;;;33.28;28.60
77086;BME280;66014;53.134;18.006;2023-07-24T11:10:58;99843.38;;;33.33;28.19
77086;BME280;66014;53.134;18.006;2023-07-24T11:13:25;99854.49;;;31.83;30.07
77086;BME280;66014;53.134;18.006;2023-07-24T11:15:53;99843.36;;;30.77;31.30
77086;BME280;66014;53.134;18.006;2023-07-24T11:18:20;99836.39;;;31.15;31.58
77086;BME280;66014;53.134;18.006;2023-07-24T11:20:52;99837.80;;;32.84;29.47
77086;BME280;66014;53.134;18.006;2023-07-24T11:23:18;99833.66;;;34.04;27.73
77086;BME280;66014;53.134;18.006;2023-07-24T11:25:45;99832.53;;;34.74;26.33
77086;BME280;66014;53.134;18.006;2023-07-24T11:28:14;99833.22;;;35.22;25.65
77086;BME280;66014;53.134;18.006;2023-07-24T11:30:41;99838.35;;;34.50;26.24
77086;BME280;66014;53.134;18.006;2023-07-24T11:33:09;99828.86;;;32.95;27.65
77086;BME280;66014;53.134;18.006;2023-07-24T11:35:42;99827.23;;;31.78;29.15
77086;BME280;66014;53.134;18.006;2023-07-24T11:38:09;99827.41;;;30.99;30.40
77086;BME280;66014;53.134;18.006;2023-07-24T11:40:40;99827.71;;;31.26;30.29
77086;BME280;66014;53.134;18.006;2023-07-24T11:43:19;99833.39;;;31.61;29.60
77086;BME280;66014;53.134;18.006;2023-07-24T11:45:46;99827.64;;;31.22;30.12
77086;BME280;66014;53.134;18.006;2023-07-24T11:48:19;99831.95;;;31.16;30.23
77086;BME280;66014;53.134;18.006;2023-07-24T11:50:56;99829.39;;;31.70;29.80
77086;BME280;66014;53.134;18.006;2023-07-24T11:56:12;99815.81;;;33.02;28.29
77086;BME280;66014;53.134;18.006;2023-07-24T11:58:38;99816.05;;;34.17;26.89
77086;BME280;66014;53.134;18.006;2023-07-24T12:01:03;99807.02;;;34.86;25.87
77086;BME280;66014;53.134;18.006;2023-07-24T12:03:30;99811.17;;;35.46;25.10
77086;BME280;66014;53.134;18.006;2023-07-24T12:05:56;99813.76;;;36.10;24.02
77086;BME280;66014;53.134;18.006;2023-07-24T12:08:34;99809.80;;;36.68;23.07
77086;BME280;66014;53.134;18.006;2023-07-24T12:11:01;99806.84;;;37.27;22.65
77086;BME280;66014;53.134;18.006;2023-07-24T12:13:27;99797.52;;;35.88;23.76
77086;BME280;66014;53.134;18.006;2023-07-24T12:15:54;99798.59;;;34.31;25.10
77086;BME280;66014;53.134;18.006;2023-07-24T12:18:20;99794.69;;;33.02;26.53
77086;BME280;66014;53.134;18.006;2023-07-24T12:20:46;99790.78;;;32.08;27.84
77086;BME280;66014;53.134;18.006;2023-07-24T12:23:12;99790.77;;;31.35;28.94
77086;BME280;66014;53.134;18.006;2023-07-24T12:25:38;99787.02;;;30.80;30.01
77086;BME280;66014;53.134;18.006;2023-07-24T12:28:04;99787.55;;;30.33;30.71
77086;BME280;66014;53.134;18.006;2023-07-24T12:30:37;99779.78;;;30.03;31.19
77086;BME280;66014;53.134;18.006;2023-07-24T12:33:02;99776.95;;;30.05;31.54
77086;BME280;66014;53.134;18.006;2023-07-24T12:35:28;99774.88;;;30.01;31.61
77086;BME280;66014;53.134;18.006;2023-07-24T12:37:55;99771.22;;;29.77;31.79
77086;BME280;66014;53.134;18.006;2023-07-24T12:40:21;99768.74;;;29.97;31.82
77086;BME280;66014;53.134;18.006;2023-07-24T12:42:47;99765.16;;;30.24;31.48
77086;BME280;66014;53.134;18.006;2023-07-24T12:45:13;99763.59;;;30.13;31.65
77086;BME280;66014;53.134;18.006;2023-07-24T12:47:38;99756.83;;;29.90;32.05
77086;BME280;66014;53.134;18.006;2023-07-24T12:50:05;99752.89;;;29.69;32.45
77086;BME280;66014;53.134;18.006;2023-07-24T12:53:05;99754.30;;;29.47;32.85
77086;BME280;66014;53.134;18.006;2023-07-24T12:56:19;99752.02;;;29.25;32.69
77086;BME280;66014;53.134;18.006;2023-07-24T12:58:45;99741.42;;;29.51;32.38